Main page
METAR-TAF:

METAR-TAF

Airports :

Belgrade, Serbia

Belgrade Nikola Tesla Airport

latitude: 44-49N, longitude: 020-17E, elevation: 96 m

Current weather observation

The report was made 37 minutes ago, at 11:30 UTC
Wind 8 kt from the West
Temperature 26°C
Humidity 61%
Pressure 1014 hPa
Visibility 10 km or more
Broken clouds at a height of 4000 ft

METAR: LYBE 261130Z 28008KT 9999 BKN040 26/18 Q1014 NOSIG

Time: 14:07 (12:07 UTC)


TAF: missing

Weather observations and forecasts of more than 4000 airports (METAR and TAF reports).

The available stations are represented by yellow and red dots on the map.

Hover mouse over dot to see the name of the station.

Then click to see weather observations and forecasts.

To change the map : click on the green buttons with a black cross to zoom in, on the green button with a dash to zoom out, or on the green arrows for adjacent maps.


METAR-TAF: